Terminal Aerodrome Forecast
Issued by NWS Cleveland, OH

Home | Current Version | Previous Version | Graphics & Text | Print | Product List | Glossary Off
Versions: 1 2 3 4 5 6 7 8 9 10 11 12 13 14 15 16 17 18 19

057
FTUS41 KCLE 161017 AAA
TAFYNG
TAF AMD
KYNG 161017Z 1610/1706 24014KT 4SM -SN BR BKN025 OVC040
      TEMPO 1610/1614 2SM -SHSN BKN015 OVC030
     FM161600 24012G18KT 6SM BR VCSH BKN035 OVC060
     FM162200 23008KT P6SM SCT045 BKN090
     FM170300 15004KT P6SM SCT050 BKN100=

USA.gov is the U.S. government's official web portal to all federal, state and local government web resources and services.